Aérodrome :
LOGIN :

S'inscrire | Disclaimer

   EN    FR    IT 

 










Légende :    VFR   VFR Marginal   IFR   IFR Intensif   IFR Très Intensif
Visi : 
Plafond : 
>= 8 km
>= 3000ft
5 à 8 km
1000 à 3000 ft
1500m à 5 km
500 à 1000 ft
800 à 1500m
200 à 500 ft
< 800m
< 200 ft
Symboles :   Orages  Brouillard  Fortes neiges  Fortes précipitations  Vent > 20 kt
SIGMETs :   Divers  Orages  Givrage  Turbulence  Onde Orograph.  Cendres Volcan.






- Altitude de l'aérodrome : 510 ft


LJCE - Cerklje

DERNIER METAR :
  • 250630Z VRB02KT 9999 BKN047 03/02 Q1011 RMK BLU

METARs EXPIRÉS :
  • 250600Z 20002KT 9999 BKN047 02/01 Q1011 RMK BLU
  • 250530Z AUTO 25003KT 9999 NSC 01/M00 Q1011
  • 250500Z AUTO 25002KT 9999 OVC049/// 00/M01 Q1012
  • 250430Z AUTO 26002KT 9999 BKN049/// M00/M01 Q1012
  • 250400Z AUTO 28001KT 9999 FEW047/// 00/M01 Q1012

TAF TAF LJCE
Valide du 25 à 06h jusqu'au 25 à 15h UTC


250500Z 2506/2515 VRB02KT 9999 SCT040
TEMPO 2506/2515 BKN040
BECMG 2508/2510 26005KT
TEMPO 2511/2515 26012KT



MET'MAP, la Météo Aéronautique d'un coup d'oeil ! - Copyright ORBIFLY Décembre 2007 - Disclaimer

ORBIFLY MET'MAP TEAM :

Programmation & Développement : Alexandra Zaïnal
Sur une idée originale de : Baudouin d'Aumeries
Assistance à la programmation : Marc-Olivier Méhu
Soutien technique & logistique : Manuel Goepfert

Contact : metmap@orbifly.com




SOURCES & CREDITS :

   NOAA